sensor_id;sensor_type;location;lat;lon;timestamp;pressure;altitude;pressure_sealevel;temperature;humidity
51229;BME280;37304;52.216;6.874;2023-02-01T00:00:37;101507.25;;;3.12;100.00
51229;BME280;37304;52.216;6.874;2023-02-01T00:05:37;101506.47;;;3.14;100.00
51229;BME280;37304;52.216;6.874;2023-02-01T00:10:37;101494.50;;;3.15;100.00
51229;BME280;37304;52.216;6.874;2023-02-01T00:15:38;101487.53;;;3.09;100.00
51229;BME280;37304;52.216;6.874;2023-02-01T00:20:38;101473.94;;;3.15;100.00
51229;BME280;37304;52.216;6.874;2023-02-01T00:25:39;101478.22;;;3.14;100.00
51229;BME280;37304;52.216;6.874;2023-02-01T00:30:40;101469.63;;;3.14;100.00
51229;BME280;37304;52.216;6.874;2023-02-01T00:35:40;101449.97;;;3.14;100.00
51229;BME280;37304;52.216;6.874;2023-02-01T00:40:41;101459.50;;;3.18;100.00
51229;BME280;37304;52.216;6.874;2023-02-01T00:45:41;101453.59;;;3.24;100.00
51229;BME280;37304;52.216;6.874;2023-02-01T00:50:42;101452.00;;;3.29;100.00
51229;BME280;37304;52.216;6.874;2023-02-01T00:55:47;101466.72;;;3.35;100.00
51229;BME280;37304;52.216;6.874;2023-02-01T01:00:47;101462.47;;;3.37;100.00
51229;BME280;37304;52.216;6.874;2023-02-01T01:05:49;101461.56;;;3.35;100.00
51229;BME280;37304;52.216;6.874;2023-02-01T01:10:50;101459.91;;;3.35;100.00
51229;BME280;37304;52.216;6.874;2023-02-01T01:15:50;101476.13;;;3.34;100.00
51229;BME280;37304;52.216;6.874;2023-02-01T01:20:50;101469.34;;;3.38;100.00
51229;BME280;37304;52.216;6.874;2023-02-01T01:25:51;101460.09;;;3.45;100.00
51229;BME280;37304;52.216;6.874;2023-02-01T01:30:52;101442.38;;;3.57;100.00
51229;BME280;37304;52.216;6.874;2023-02-01T01:35:52;101436.34;;;3.57;100.00
51229;BME280;37304;52.216;6.874;2023-02-01T01:40:53;101432.13;;;3.59;100.00
51229;BME280;37304;52.216;6.874;2023-02-01T01:45:53;101418.44;;;3.60;100.00
51229;BME280;37304;52.216;6.874;2023-02-01T01:51:13;101416.03;;;3.66;100.00
51229;BME280;37304;52.216;6.874;2023-02-01T01:56:15;101408.22;;;3.63;100.00
51229;BME280;37304;52.216;6.874;2023-02-01T02:01:16;101395.34;;;3.63;100.00
51229;BME280;37304;52.216;6.874;2023-02-01T02:06:26;101402.16;;;3.61;100.00
51229;BME280;37304;52.216;6.874;2023-02-01T02:11:28;101403.81;;;3.57;100.00
51229;BME280;37304;52.216;6.874;2023-02-01T02:37:41;101366.97;;;3.57;100.00
51229;BME280;37304;52.216;6.874;2023-02-01T02:42:51;101365.34;;;3.62;100.00
51229;BME280;37304;52.216;6.874;2023-02-01T02:54:05;101355.00;;;3.59;100.00
51229;BME280;37304;52.216;6.874;2023-02-01T02:59:27;101347.34;;;3.62;100.00
51229;BME280;37304;52.216;6.874;2023-02-01T03:04:52;101343.75;;;3.52;100.00
51229;BME280;37304;52.216;6.874;2023-02-01T03:09:56;101337.84;;;3.58;100.00
51229;BME280;37304;52.216;6.874;2023-02-01T03:15:03;101330.25;;;3.62;100.00
51229;BME280;37304;52.216;6.874;2023-02-01T03:20:06;101321.75;;;3.67;100.00
51229;BME280;37304;52.216;6.874;2023-02-01T03:25:11;101328.75;;;3.74;100.00
51229;BME280;37304;52.216;6.874;2023-02-01T03:30:20;101329.59;;;3.73;100.00
51229;BME280;37304;52.216;6.874;2023-02-01T03:35:48;101323.63;;;3.74;100.00
51229;BME280;37304;52.216;6.874;2023-02-01T03:41:01;101309.78;;;3.67;100.00
51229;BME280;37304;52.216;6.874;2023-02-01T03:46:07;101320.03;;;3.66;100.00
51229;BME280;37304;52.216;6.874;2023-02-01T03:51:10;101313.94;;;3.62;100.00
51229;BME280;37304;52.216;6.874;2023-02-01T03:56:11;101324.38;;;3.68;100.00
51229;BME280;37304;52.216;6.874;2023-02-01T04:01:11;101317.56;;;3.70;100.00
51229;BME280;37304;52.216;6.874;2023-02-01T04:06:12;101316.84;;;3.77;100.00
51229;BME280;37304;52.216;6.874;2023-02-01T04:11:13;101308.41;;;3.86;100.00
51229;BME280;37304;52.216;6.874;2023-02-01T04:16:13;101298.22;;;3.92;100.00
51229;BME280;37304;52.216;6.874;2023-02-01T04:21:14;101290.63;;;3.97;100.00
51229;BME280;37304;52.216;6.874;2023-02-01T04:26:14;101300.09;;;4.00;100.00
51229;BME280;37304;52.216;6.874;2023-02-01T04:31:17;101299.22;;;3.99;100.00
51229;BME280;37304;52.216;6.874;2023-02-01T04:36:18;101303.63;;;4.06;100.00
51229;BME280;37304;52.216;6.874;2023-02-01T04:41:22;101302.78;;;4.07;100.00
51229;BME280;37304;52.216;6.874;2023-02-01T04:46:22;101295.97;;;4.10;100.00
51229;BME280;37304;52.216;6.874;2023-02-01T04:51:23;101295.13;;;4.09;100.00
51229;BME280;37304;52.216;6.874;2023-02-01T04:56:23;101290.88;;;4.11;100.00
51229;BME280;37304;52.216;6.874;2023-02-01T05:01:24;101281.47;;;4.13;100.00
51229;BME280;37304;52.216;6.874;2023-02-01T05:06:27;101296.91;;;4.15;100.00
51229;BME280;37304;52.216;6.874;2023-02-01T05:11:27;101289.25;;;4.16;100.00
51229;BME280;37304;52.216;6.874;2023-02-01T05:16:46;101282.38;;;4.17;100.00
51229;BME280;37304;52.216;6.874;2023-02-01T05:21:47;101280.84;;;4.28;100.00
51229;BME280;37304;52.216;6.874;2023-02-01T05:26:48;101264.97;;;4.54;100.00
51229;BME280;37304;52.216;6.874;2023-02-01T05:31:49;101263.38;;;4.62;100.00
51229;BME280;37304;52.216;6.874;2023-02-01T05:36:49;101260.13;;;4.74;100.00
51229;BME280;37304;52.216;6.874;2023-02-01T05:41:49;101261.09;;;4.83;100.00
51229;BME280;37304;52.216;6.874;2023-02-01T05:46:50;101263.56;;;4.78;100.00
51229;BME280;37304;52.216;6.874;2023-02-01T05:51:52;101260.16;;;4.77;100.00
51229;BME280;37304;52.216;6.874;2023-02-01T05:56:52;101280.84;;;4.84;100.00
51229;BME280;37304;52.216;6.874;2023-02-01T06:01:53;101281.69;;;4.84;100.00
51229;BME280;37304;52.216;6.874;2023-02-01T06:06:55;101275.72;;;4.88;100.00
51229;BME280;37304;52.216;6.874;2023-02-01T06:11:56;101291.19;;;4.88;100.00
51229;BME280;37304;52.216;6.874;2023-02-01T06:16:56;101292.06;;;4.89;100.00
51229;BME280;37304;52.216;6.874;2023-02-01T06:21:57;101294.66;;;4.89;100.00
51229;BME280;37304;52.216;6.874;2023-02-01T06:26:57;101292.97;;;4.92;100.00
51229;BME280;37304;52.216;6.874;2023-02-01T06:31:57;101298.97;;;4.91;100.00
51229;BME280;37304;52.216;6.874;2023-02-01T06:36:58;101299.00;;;4.94;100.00
51229;BME280;37304;52.216;6.874;2023-02-01T06:41:58;101307.53;;;4.89;100.00
51229;BME280;37304;52.216;6.874;2023-02-01T06:46:59;101292.91;;;4.88;100.00
51229;BME280;37304;52.216;6.874;2023-02-01T06:51:59;101301.50;;;4.88;100.00
51229;BME280;37304;52.216;6.874;2023-02-01T06:57:00;101319.50;;;4.88;100.00
51229;BME280;37304;52.216;6.874;2023-02-01T07:02:00;101323.81;;;4.88;100.00
51229;BME280;37304;52.216;6.874;2023-02-01T07:07:01;101316.94;;;4.88;100.00
51229;BME280;37304;52.216;6.874;2023-02-01T07:12:01;101323.00;;;4.92;100.00
51229;BME280;37304;52.216;6.874;2023-02-01T07:17:01;101327.31;;;4.94;100.00
51229;BME280;37304;52.216;6.874;2023-02-01T07:22:02;101326.44;;;4.92;100.00
51229;BME280;37304;52.216;6.874;2023-02-01T07:27:02;101340.22;;;4.94;100.00
51229;BME280;37304;52.216;6.874;2023-02-01T07:32:02;101340.31;;;5.01;100.00
51229;BME280;37304;52.216;6.874;2023-02-01T07:37:03;101340.28;;;4.98;100.00
51229;BME280;37304;52.216;6.874;2023-02-01T07:42:03;101343.78;;;5.03;100.00
51229;BME280;37304;52.216;6.874;2023-02-01T07:47:05;101341.22;;;5.04;100.00
51229;BME280;37304;52.216;6.874;2023-02-01T07:52:05;101353.25;;;5.05;100.00
51229;BME280;37304;52.216;6.874;2023-02-01T07:57:06;101348.13;;;5.07;100.00
51229;BME280;37304;52.216;6.874;2023-02-01T08:02:13;101347.34;;;5.11;100.00
51229;BME280;37304;52.216;6.874;2023-02-01T08:07:14;101353.28;;;5.07;100.00
51229;BME280;37304;52.216;6.874;2023-02-01T08:12:14;101351.66;;;5.14;100.00
51229;BME280;37304;52.216;6.874;2023-02-01T08:17:14;101356.84;;;5.15;100.00
51229;BME280;37304;52.216;6.874;2023-02-01T08:22:19;101350.88;;;5.19;100.00
51229;BME280;37304;52.216;6.874;2023-02-01T08:27:27;101354.25;;;5.17;100.00
51229;BME280;37304;52.216;6.874;2023-02-01T08:32:28;101368.88;;;5.18;100.00
51229;BME280;37304;52.216;6.874;2023-02-01T08:37:28;101368.06;;;5.22;100.00
51229;BME280;37304;52.216;6.874;2023-02-01T08:42:29;101378.53;;;5.31;100.00
51229;BME280;37304;52.216;6.874;2023-02-01T08:47:48;101364.00;;;5.38;100.00
51229;BME280;37304;52.216;6.874;2023-02-01T08:52:49;101367.56;;;5.46;100.00
51229;BME280;37304;52.216;6.874;2023-02-01T08:57:49;101362.44;;;5.49;100.00
51229;BME280;37304;52.216;6.874;2023-02-01T09:02:50;101347.00;;;5.51;100.00
51229;BME280;37304;52.216;6.874;2023-02-01T09:07:50;101347.84;;;5.50;100.00
51229;BME280;37304;52.216;6.874;2023-02-01T09:12:50;101344.47;;;5.56;100.00
51229;BME280;37304;52.216;6.874;2023-02-01T09:18:01;101323.91;;;5.60;100.00
51229;BME280;37304;52.216;6.874;2023-02-01T09:23:01;101318.81;;;5.65;100.00
51229;BME280;37304;52.216;6.874;2023-02-01T09:28:02;101322.31;;;5.70;100.00
51229;BME280;37304;52.216;6.874;2023-02-01T09:33:04;101311.22;;;5.80;100.00
51229;BME280;37304;52.216;6.874;2023-02-01T09:38:04;101311.19;;;5.74;100.00
51229;BME280;37304;52.216;6.874;2023-02-01T09:43:15;101309.47;;;5.78;100.00
51229;BME280;37304;52.216;6.874;2023-02-01T09:48:22;101306.06;;;5.80;100.00
51229;BME280;37304;52.216;6.874;2023-02-01T09:53:29;101313.88;;;5.87;100.00
51229;BME280;37304;52.216;6.874;2023-02-01T09:58:45;101319.03;;;5.87;100.00
51229;BME280;37304;52.216;6.874;2023-02-01T10:03:48;101332.81;;;5.89;100.00
51229;BME280;37304;52.216;6.874;2023-02-01T10:19:43;101290.19;;;6.26;100.00
51229;BME280;37304;52.216;6.874;2023-02-01T10:24:53;101290.97;;;6.18;100.00
51229;BME280;37304;52.216;6.874;2023-02-01T10:30:04;101284.88;;;6.09;100.00
51229;BME280;37304;52.216;6.874;2023-02-01T10:35:28;101287.47;;;6.08;100.00
51229;BME280;37304;52.216;6.874;2023-02-01T10:40:30;101281.19;;;5.86;100.00
51229;BME280;37304;52.216;6.874;2023-02-01T10:45:32;101292.06;;;5.58;100.00
51229;BME280;37304;52.216;6.874;2023-02-01T10:50:41;101291.03;;;5.42;100.00
51229;BME280;37304;52.216;6.874;2023-02-01T11:00:53;101289.97;;;5.24;100.00
51229;BME280;37304;52.216;6.874;2023-02-01T11:05:55;101278.81;;;5.25;100.00
51229;BME280;37304;52.216;6.874;2023-02-01T11:11:00;101288.09;;;5.13;100.00
51229;BME280;37304;52.216;6.874;2023-02-01T11:16:03;101286.22;;;5.02;100.00
51229;BME280;37304;52.216;6.874;2023-02-01T11:21:06;101288.81;;;5.01;100.00
51229;BME280;37304;52.216;6.874;2023-02-01T11:26:14;101292.13;;;4.93;100.00
51229;BME280;37304;52.216;6.874;2023-02-01T11:31:20;101283.41;;;4.85;100.00
51229;BME280;37304;52.216;6.874;2023-02-01T11:36:26;101273.97;;;4.84;100.00
51229;BME280;37304;52.216;6.874;2023-02-01T11:41:27;101276.53;;;4.83;100.00
51229;BME280;37304;52.216;6.874;2023-02-01T11:46:33;101277.34;;;4.78;100.00
51229;BME280;37304;52.216;6.874;2023-02-01T11:51:39;101263.69;;;4.86;100.00
51229;BME280;37304;52.216;6.874;2023-02-01T12:07:20;101262.25;;;5.06;100.00
51229;BME280;37304;52.216;6.874;2023-02-01T12:38:53;101205.31;;;5.63;100.00
51229;BME280;37304;52.216;6.874;2023-02-01T12:43:59;101214.84;;;5.71;100.00
51229;BME280;37304;52.216;6.874;2023-02-01T12:49:22;101207.09;;;5.69;100.00
51229;BME280;37304;52.216;6.874;2023-02-01T12:54:40;101199.34;;;5.67;100.00
51229;BME280;37304;52.216;6.874;2023-02-01T13:10:33;101178.09;;;5.98;100.00
51229;BME280;37304;52.216;6.874;2023-02-01T13:15:42;101185.84;;;5.98;100.00
51229;BME280;37304;52.216;6.874;2023-02-01T13:20:56;101169.63;;;6.10;100.00
51229;BME280;37304;52.216;6.874;2023-02-01T13:25:58;101165.41;;;6.21;100.00
51229;BME280;37304;52.216;6.874;2023-02-01T13:41:32;101192.06;;;6.17;100.00
51229;BME280;37304;52.216;6.874;2023-02-01T13:46:45;101197.16;;;6.12;100.00
51229;BME280;37304;52.216;6.874;2023-02-01T13:51:50;101197.34;;;6.34;100.00
51229;BME280;37304;52.216;6.874;2023-02-01T13:56:52;101216.25;;;6.35;100.00
51229;BME280;37304;52.216;6.874;2023-02-01T14:01:53;101223.06;;;6.23;100.00
51229;BME280;37304;52.216;6.874;2023-02-01T14:06:53;101221.28;;;6.18;100.00
51229;BME280;37304;52.216;6.874;2023-02-01T14:11:55;101227.25;;;6.09;100.00
51229;BME280;37304;52.216;6.874;2023-02-01T14:27:20;101244.41;;;6.05;100.00
51229;BME280;37304;52.216;6.874;2023-02-01T14:32:22;101238.44;;;6.09;100.00
51229;BME280;37304;52.216;6.874;2023-02-01T14:37:29;101245.38;;;6.15;100.00
51229;BME280;37304;52.216;6.874;2023-02-01T14:42:51;101241.88;;;6.11;100.00
51229;BME280;37304;52.216;6.874;2023-02-01T15:08:39;101262.72;;;6.33;100.00
51229;BME280;37304;52.216;6.874;2023-02-01T15:13:39;101261.84;;;6.31;100.00
51229;BME280;37304;52.216;6.874;2023-02-01T15:18:41;101265.41;;;6.46;100.00
51229;BME280;37304;52.216;6.874;2023-02-01T15:23:41;101255.94;;;6.48;100.00
51229;BME280;37304;52.216;6.874;2023-02-01T15:28:41;101262.81;;;6.46;100.00
51229;BME280;37304;52.216;6.874;2023-02-01T15:33:56;101269.59;;;6.31;100.00
51229;BME280;37304;52.216;6.874;2023-02-01T15:39:22;101283.28;;;6.24;100.00
51229;BME280;37304;52.216;6.874;2023-02-01T15:49:31;101278.91;;;6.17;100.00
51229;BME280;37304;52.216;6.874;2023-02-01T15:54:46;101280.66;;;6.16;100.00
51229;BME280;37304;52.216;6.874;2023-02-01T15:59:52;101278.03;;;6.15;100.00
51229;BME280;37304;52.216;6.874;2023-02-01T16:04:56;101273.72;;;6.09;100.00
51229;BME280;37304;52.216;6.874;2023-02-01T16:09:58;101292.59;;;6.06;100.00
51229;BME280;37304;52.216;6.874;2023-02-01T16:14:59;101305.41;;;6.00;100.00
51229;BME280;37304;52.216;6.874;2023-02-01T16:19:59;101316.53;;;5.96;100.00
51229;BME280;37304;52.216;6.874;2023-02-01T16:25:00;101315.78;;;6.03;100.00
51229;BME280;37304;52.216;6.874;2023-02-01T16:30:02;101323.56;;;6.06;100.00
51229;BME280;37304;52.216;6.874;2023-02-01T16:35:02;101324.38;;;6.02;100.00
51229;BME280;37304;52.216;6.874;2023-02-01T16:40:03;101326.09;;;6.03;100.00
51229;BME280;37304;52.216;6.874;2023-02-01T16:45:04;101332.13;;;6.01;100.00
51229;BME280;37304;52.216;6.874;2023-02-01T16:50:15;101338.09;;;6.00;100.00
51229;BME280;37304;52.216;6.874;2023-02-01T16:55:18;101344.94;;;5.96;100.00
51229;BME280;37304;52.216;6.874;2023-02-01T17:00:22;101350.94;;;5.95;100.00
51229;BME280;37304;52.216;6.874;2023-02-01T17:05:25;101354.34;;;5.91;100.00
51229;BME280;37304;52.216;6.874;2023-02-01T17:10:26;101363.78;;;5.89;100.00
51229;BME280;37304;52.216;6.874;2023-02-01T17:15:30;101376.53;;;5.78;100.00
51229;BME280;37304;52.216;6.874;2023-02-01T17:20:33;101372.16;;;5.71;100.00
51229;BME280;37304;52.216;6.874;2023-02-01T17:25:34;101369.47;;;5.63;100.00
51229;BME280;37304;52.216;6.874;2023-02-01T17:30:35;101381.47;;;5.59;100.00
51229;BME280;37304;52.216;6.874;2023-02-01T17:35:37;101384.81;;;5.53;100.00
51229;BME280;37304;52.216;6.874;2023-02-01T17:40:37;101390.75;;;5.46;100.00
51229;BME280;37304;52.216;6.874;2023-02-01T17:45:42;101401.81;;;5.39;100.00
51229;BME280;37304;52.216;6.874;2023-02-01T17:50:50;101406.78;;;5.25;100.00
51229;BME280;37304;52.216;6.874;2023-02-01T17:55:57;101429.75;;;5.08;100.00
51229;BME280;37304;52.216;6.874;2023-02-01T18:00:58;101436.53;;;5.03;100.00
51229;BME280;37304;52.216;6.874;2023-02-01T18:05:58;101431.28;;;4.98;100.00
51229;BME280;37304;52.216;6.874;2023-02-01T18:11:01;101442.44;;;4.97;100.00
51229;BME280;37304;52.216;6.874;2023-02-01T18:16:01;101466.31;;;4.87;100.00
51229;BME280;37304;52.216;6.874;2023-02-01T18:21:03;101459.31;;;4.79;100.00
51229;BME280;37304;52.216;6.874;2023-02-01T18:26:04;101459.03;;;4.62;100.00
51229;BME280;37304;52.216;6.874;2023-02-01T18:31:05;101451.25;;;4.61;100.00
51229;BME280;37304;52.216;6.874;2023-02-01T18:36:10;101446.06;;;4.58;100.00
51229;BME280;37304;52.216;6.874;2023-02-01T18:41:17;101439.16;;;4.55;100.00
51229;BME280;37304;52.216;6.874;2023-02-01T18:46:20;101440.72;;;4.47;100.00
51229;BME280;37304;52.216;6.874;2023-02-01T18:51:21;101443.19;;;4.41;100.00
51229;BME280;37304;52.216;6.874;2023-02-01T18:56:23;101443.88;;;4.32;100.00
51229;BME280;37304;52.216;6.874;2023-02-01T19:01:24;101440.31;;;4.25;100.00
51229;BME280;37304;52.216;6.874;2023-02-01T19:06:24;101448.84;;;4.22;100.00
51229;BME280;37304;52.216;6.874;2023-02-01T19:11:25;101457.38;;;4.20;100.00
51229;BME280;37304;52.216;6.874;2023-02-01T19:16:26;101463.16;;;4.08;100.00
51229;BME280;37304;52.216;6.874;2023-02-01T19:21:26;101469.75;;;3.97;100.00
51229;BME280;37304;52.216;6.874;2023-02-01T19:26:26;101473.03;;;3.89;100.00
51229;BME280;37304;52.216;6.874;2023-02-01T19:31:27;101480.72;;;3.88;100.00
51229;BME280;37304;52.216;6.874;2023-02-01T19:36:27;101467.84;;;3.86;100.00
51229;BME280;37304;52.216;6.874;2023-02-01T19:41:27;101473.66;;;3.77;100.00
51229;BME280;37304;52.216;6.874;2023-02-01T19:46:28;101487.22;;;3.70;100.00
51229;BME280;37304;52.216;6.874;2023-02-01T19:51:28;101468.16;;;3.60;100.00
51229;BME280;37304;52.216;6.874;2023-02-01T19:56:29;101480.84;;;3.54;100.00
51229;BME280;37304;52.216;6.874;2023-02-01T20:01:33;101474.84;;;3.54;100.00
51229;BME280;37304;52.216;6.874;2023-02-01T20:06:37;101477.47;;;3.57;100.00
51229;BME280;37304;52.216;6.874;2023-02-01T20:11:38;101483.56;;;3.60;100.00
51229;BME280;37304;52.216;6.874;2023-02-01T20:16:39;101491.34;;;3.63;100.00
51229;BME280;37304;52.216;6.874;2023-02-01T20:21:40;101496.00;;;3.80;100.00
51229;BME280;37304;52.216;6.874;2023-02-01T20:26:44;101506.66;;;3.97;100.00
51229;BME280;37304;52.216;6.874;2023-02-01T20:31:45;101518.06;;;4.10;100.00
51229;BME280;37304;52.216;6.874;2023-02-01T20:36:45;101512.22;;;4.19;100.00
51229;BME280;37304;52.216;6.874;2023-02-01T20:41:46;101513.41;;;4.33;100.00
51229;BME280;37304;52.216;6.874;2023-02-01T20:46:46;101508.31;;;4.36;100.00
51229;BME280;37304;52.216;6.874;2023-02-01T20:51:46;101511.78;;;4.40;100.00
51229;BME280;37304;52.216;6.874;2023-02-01T20:56:47;101513.53;;;4.41;100.00
51229;BME280;37304;52.216;6.874;2023-02-01T21:01:48;101510.94;;;4.40;100.00
51229;BME280;37304;52.216;6.874;2023-02-01T21:06:53;101505.75;;;4.38;100.00
51229;BME280;37304;52.216;6.874;2023-02-01T21:11:53;101506.56;;;4.35;100.00
51229;BME280;37304;52.216;6.874;2023-02-01T21:16:54;101515.81;;;4.27;100.00
51229;BME280;37304;52.216;6.874;2023-02-01T21:21:56;101515.03;;;4.30;100.00
51229;BME280;37304;52.216;6.874;2023-02-01T21:26:57;101519.28;;;4.29;100.00
51229;BME280;37304;52.216;6.874;2023-02-01T21:31:57;101533.22;;;4.37;100.00
51229;BME280;37304;52.216;6.874;2023-02-01T21:36:58;101535.13;;;4.48;100.00
51229;BME280;37304;52.216;6.874;2023-02-01T21:41:58;101536.22;;;4.61;100.00
51229;BME280;37304;52.216;6.874;2023-02-01T21:47:21;101548.19;;;4.59;100.00
51229;BME280;37304;52.216;6.874;2023-02-01T21:52:21;101543.97;;;4.62;100.00
51229;BME280;37304;52.216;6.874;2023-02-01T21:57:22;101550.06;;;4.66;100.00
51229;BME280;37304;52.216;6.874;2023-02-01T22:02:22;101546.59;;;4.65;100.00
51229;BME280;37304;52.216;6.874;2023-02-01T22:07:23;101539.06;;;4.75;100.00
51229;BME280;37304;52.216;6.874;2023-02-01T22:12:23;101549.41;;;4.78;100.00
51229;BME280;37304;52.216;6.874;2023-02-01T22:17:23;101552.88;;;4.80;100.00
51229;BME280;37304;52.216;6.874;2023-02-01T22:22:24;101573.41;;;4.75;100.00
51229;BME280;37304;52.216;6.874;2023-02-01T22:27:24;101572.59;;;4.78;100.00
51229;BME280;37304;52.216;6.874;2023-02-01T22:32:25;101581.28;;;4.83;100.00
51229;BME280;37304;52.216;6.874;2023-02-01T22:37:26;101593.13;;;4.75;100.00
51229;BME280;37304;52.216;6.874;2023-02-01T22:42:27;101593.00;;;4.67;100.00
51229;BME280;37304;52.216;6.874;2023-02-01T22:47:27;101597.38;;;4.73;100.00
51229;BME280;37304;52.216;6.874;2023-02-01T22:52:27;101593.97;;;4.74;100.00
51229;BME280;37304;52.216;6.874;2023-02-01T22:57:28;101606.84;;;4.74;100.00
51229;BME280;37304;52.216;6.874;2023-02-01T23:02:28;101619.88;;;4.81;100.00
51229;BME280;37304;52.216;6.874;2023-02-01T23:07:28;101615.66;;;4.85;100.00
51229;BME280;37304;52.216;6.874;2023-02-01T23:12:29;101613.13;;;4.88;100.00
51229;BME280;37304;52.216;6.874;2023-02-01T23:17:30;101604.50;;;4.85;100.00
51229;BME280;37304;52.216;6.874;2023-02-01T23:22:31;101607.06;;;4.85;100.00
51229;BME280;37304;52.216;6.874;2023-02-01T23:27:32;101614.81;;;4.86;100.00
51229;BME280;37304;52.216;6.874;2023-02-01T23:32:33;101611.34;;;4.84;100.00
51229;BME280;37304;52.216;6.874;2023-02-01T23:37:33;101612.19;;;4.83;100.00
51229;BME280;37304;52.216;6.874;2023-02-01T23:42:34;101612.06;;;4.77;100.00
51229;BME280;37304;52.216;6.874;2023-02-01T23:47:34;101599.97;;;4.73;100.00
51229;BME280;37304;52.216;6.874;2023-02-01T23:52:35;101598.00;;;4.61;100.00
51229;BME280;37304;52.216;6.874;2023-02-01T23:57:35;101605.66;;;4.58;100.00
